createdAt,value
2023-05-01T00:01:15.757Z,9.04
2023-05-01T00:03:43.807Z,8.97
2023-05-01T00:06:11.857Z,8.93
2023-05-01T00:08:39.787Z,8.91
2023-05-01T00:11:09.965Z,8.83
2023-05-01T00:13:37.882Z,8.88
2023-05-01T00:16:10.729Z,8.84
2023-05-01T00:18:39.072Z,8.82
2023-05-01T00:21:07.091Z,8.74
2023-05-01T00:23:34.923Z,8.69
2023-05-01T00:26:02.779Z,8.73
2023-05-01T00:28:30.633Z,8.72
2023-05-01T00:30:58.641Z,8.69
2023-05-01T00:33:27.975Z,8.64
2023-05-01T00:35:56.966Z,8.60
2023-05-01T00:38:25.043Z,8.52
2023-05-01T00:40:52.963Z,8.42
2023-05-01T00:43:21.084Z,8.37
2023-05-01T00:45:48.922Z,8.31
2023-05-01T00:48:17.264Z,8.28
2023-05-01T00:50:47.391Z,8.23
2023-05-01T00:53:15.322Z,8.21
2023-05-01T00:55:43.708Z,8.21
2023-05-01T00:58:12.278Z,8.21
2023-05-01T01:00:40.155Z,8.18
2023-05-01T01:03:08.192Z,8.19
2023-05-01T01:05:44.241Z,8.14
2023-05-01T01:08:25.081Z,8.14
2023-05-01T01:10:57.196Z,8.10
2023-05-01T01:13:31.244Z,8.07
2023-05-01T01:16:07.401Z,8.04
2023-05-01T01:18:44.783Z,8.01
2023-05-01T01:21:18.805Z,7.94
2023-05-01T01:24:23.638Z,7.89
2023-05-01T01:27:48.360Z,7.83
2023-05-01T01:30:35.923Z,7.78
2023-05-01T01:33:30.089Z,7.68
2023-05-01T01:36:05.994Z,7.65
2023-05-01T01:38:44.405Z,7.63
2023-05-01T01:41:18.953Z,7.64
2023-05-01T01:43:54.418Z,7.68
2023-05-01T01:46:26.058Z,7.71
2023-05-01T01:48:56.403Z,7.72
2023-05-01T01:51:28.044Z,7.67
2023-05-01T01:53:59.790Z,7.62
2023-05-01T01:56:30.702Z,7.61
2023-05-01T01:59:00.116Z,7.55
2023-05-01T02:01:29.522Z,7.52
2023-05-01T02:03:59.231Z,7.49
2023-05-01T02:06:31.779Z,7.49
2023-05-01T02:09:01.022Z,7.54
2023-05-01T02:11:31.498Z,7.53
2023-05-01T02:14:02.391Z,7.57
2023-05-01T02:16:31.228Z,7.54
2023-05-01T02:18:59.579Z,7.54
2023-05-01T02:21:31.266Z,7.56
2023-05-01T02:24:02.274Z,7.60
2023-05-01T02:26:31.085Z,7.65
2023-05-01T02:28:59.466Z,7.68
2023-05-01T02:31:27.958Z,7.65
2023-05-01T02:33:55.861Z,7.64
2023-05-01T02:36:23.707Z,7.64
2023-05-01T02:38:53.006Z,7.64
2023-05-01T02:41:23.344Z,7.63
2023-05-01T02:43:56.865Z,7.61
2023-05-01T02:46:27.372Z,7.58
2023-05-01T02:48:57.073Z,7.57
2023-05-01T02:51:26.340Z,7.56
2023-05-01T02:53:56.274Z,7.52
2023-05-01T02:56:24.583Z,7.53
2023-05-01T02:58:53.440Z,7.48
2023-05-01T03:01:21.747Z,7.46
2023-05-01T03:03:49.673Z,7.43
2023-05-01T03:06:17.672Z,7.40
2023-05-01T03:08:45.699Z,7.34
2023-05-01T03:11:15.737Z,7.30
2023-05-01T03:13:43.722Z,7.28
2023-05-01T03:16:11.580Z,7.30
2023-05-01T03:18:39.551Z,7.26
2023-05-01T03:21:07.525Z,7.24
2023-05-01T03:23:35.384Z,7.20
2023-05-01T03:26:03.248Z,7.13
2023-05-01T03:28:32.584Z,7.09
2023-05-01T03:31:00.491Z,7.06
2023-05-01T03:33:28.355Z,7.07
2023-05-01T03:36:03.793Z,7.11
2023-05-01T03:38:32.151Z,7.12
2023-05-01T03:41:00.254Z,7.04
2023-05-01T03:43:28.156Z,7.02
2023-05-01T03:45:57.526Z,7.01
2023-05-01T03:48:25.653Z,6.97
2023-05-01T03:50:53.632Z,6.92
2023-05-01T03:53:21.559Z,6.90
2023-05-01T03:55:49.454Z,6.89
2023-05-01T03:58:17.541Z,6.91
2023-05-01T04:00:45.396Z,6.97
2023-05-01T04:03:14.750Z,7.03
2023-05-01T04:05:43.348Z,7.12
2023-05-01T04:08:11.372Z,7.15
2023-05-01T04:10:39.361Z,7.15
2023-05-01T04:13:07.254Z,7.25
2023-05-01T04:15:35.109Z,7.37
2023-05-01T04:18:03.082Z,7.48
2023-05-01T04:20:33.139Z,7.61
2023-05-01T04:23:01.018Z,7.72
2023-05-01T04:25:28.884Z,7.83
2023-05-01T04:27:57.375Z,7.87
2023-05-01T04:30:25.328Z,7.96
2023-05-01T04:32:53.241Z,8.05
2023-05-01T04:35:21.315Z,8.13
2023-05-01T04:37:50.721Z,8.19
2023-05-01T04:40:18.931Z,8.24
2023-05-01T04:42:47.129Z,8.38
2023-05-01T04:45:15.120Z,8.51
2023-05-01T04:47:43.117Z,8.66
2023-05-01T04:50:11.919Z,8.83
2023-05-01T04:52:39.831Z,8.90
2023-05-01T04:55:10.418Z,8.97
2023-05-01T04:57:38.362Z,9.14
2023-05-01T05:00:08.383Z,9.41
2023-05-01T05:02:36.424Z,9.68
2023-05-01T05:05:04.506Z,9.96
2023-05-01T05:07:32.378Z,10.23
2023-05-01T05:10:00.208Z,10.60
2023-05-01T05:12:29.511Z,10.89
2023-05-01T05:14:57.577Z,11.29
2023-05-01T05:17:25.664Z,11.84
2023-05-01T05:19:53.649Z,12.69
2023-05-01T05:22:21.611Z,13.85
2023-05-01T05:24:54.975Z,15.16
2023-05-01T05:27:22.897Z,16.36
2023-05-01T05:29:52.798Z,17.24
2023-05-01T05:32:20.843Z,17.76
2023-05-01T05:34:49.093Z,17.96
2023-05-01T05:37:16.927Z,18.06
2023-05-01T05:39:44.884Z,18.49
2023-05-01T05:42:12.754Z,19.40
2023-05-01T05:44:40.753Z,20.47
2023-05-01T05:47:09.990Z,21.30
2023-05-01T05:49:37.806Z,21.74
2023-05-01T05:52:05.973Z,22.22
2023-05-01T05:54:33.950Z,22.82
2023-05-01T05:57:02.743Z,23.37
2023-05-01T05:59:30.586Z,23.89
2023-05-01T06:01:59.028Z,24.39
2023-05-01T06:04:28.324Z,24.92
2023-05-01T06:06:56.267Z,25.40
2023-05-01T06:09:24.286Z,25.76
2023-05-01T06:11:52.140Z,26.24
2023-05-01T06:14:20.017Z,26.59
2023-05-01T06:16:48.013Z,26.84
2023-05-01T06:19:16.033Z,27.25
2023-05-01T06:21:45.342Z,27.60
2023-05-01T06:24:13.458Z,27.81
2023-05-01T06:26:41.513Z,27.62
2023-05-01T06:29:09.460Z,27.37
2023-05-01T06:31:37.415Z,27.41
2023-05-01T06:34:05.244Z,27.17
2023-05-01T06:36:33.150Z,26.83
2023-05-01T06:39:02.437Z,26.53
2023-05-01T06:41:30.391Z,26.35
2023-05-01T06:43:58.627Z,26.87
2023-05-01T06:46:26.599Z,27.32
2023-05-01T06:48:54.591Z,27.95
2023-05-01T06:51:22.450Z,28.72
2023-05-01T06:53:50.292Z,28.97
2023-05-01T06:56:19.481Z,28.27
2023-05-01T06:58:47.388Z,27.58
2023-05-01T07:01:15.604Z,27.09
2023-05-01T07:03:43.752Z,26.67
2023-05-01T07:06:12.058Z,26.39
2023-05-01T07:08:40.065Z,26.52
2023-05-01T07:11:08.557Z,26.79
2023-05-01T07:13:37.805Z,27.52
2023-05-01T07:16:06.284Z,28.25
2023-05-01T07:18:34.887Z,28.87
2023-05-01T07:21:03.144Z,29.66
2023-05-01T07:23:31.039Z,30.33
2023-05-01T07:25:58.996Z,30.60
2023-05-01T07:28:26.842Z,30.21
2023-05-01T07:30:56.072Z,30.44
2023-05-01T07:33:25.861Z,30.45
2023-05-01T07:35:54.245Z,29.76
2023-05-01T07:38:22.226Z,29.51
2023-05-01T07:40:53.413Z,29.27
2023-05-01T07:43:21.671Z,29.07
2023-05-01T07:45:59.052Z,29.18
2023-05-01T07:48:27.989Z,29.96
2023-05-01T07:50:56.648Z,30.27
2023-05-01T07:53:24.559Z,30.79
2023-05-01T07:55:52.541Z,30.70
2023-05-01T07:58:20.588Z,30.04
2023-05-01T08:00:48.451Z,29.62
2023-05-01T08:03:17.763Z,29.53
2023-05-01T08:05:45.888Z,29.64
2023-05-01T08:08:20.026Z,29.67
2023-05-01T08:10:47.988Z,29.57
2023-05-01T08:13:16.069Z,29.56
2023-05-01T08:15:43.926Z,29.59
2023-05-01T08:18:12.228Z,29.23
2023-05-01T08:20:41.584Z,28.69
2023-05-01T08:23:09.449Z,28.48
2023-05-01T08:25:37.623Z,27.75
2023-05-01T08:28:06.324Z,26.50
2023-05-01T08:30:34.267Z,25.37
2023-05-01T08:33:02.307Z,24.59
2023-05-01T08:35:30.240Z,23.54
2023-05-01T08:37:59.645Z,22.57
2023-05-01T08:40:27.668Z,21.37
2023-05-01T08:42:56.280Z,20.64
2023-05-01T08:45:25.372Z,20.22
2023-05-01T08:47:56.122Z,19.81
2023-05-01T08:50:26.267Z,19.42
2023-05-01T08:52:55.492Z,19.10
2023-05-01T08:55:27.605Z,19.00
2023-05-01T08:57:56.772Z,18.88
2023-05-01T09:00:27.281Z,18.82
2023-05-01T09:02:56.176Z,18.82
2023-05-01T09:05:24.105Z,18.92
2023-05-01T09:07:52.035Z,19.07
2023-05-01T09:10:20.159Z,19.28
2023-05-01T09:12:53.919Z,19.88
2023-05-01T09:15:22.477Z,20.77
2023-05-01T09:17:50.606Z,21.51
2023-05-01T09:20:20.554Z,21.99
2023-05-01T09:22:48.845Z,22.15
2023-05-01T09:25:16.745Z,22.61
2023-05-01T09:27:45.742Z,22.96
2023-05-01T09:30:31.860Z,23.96
2023-05-01T09:33:09.892Z,24.97
2023-05-01T09:35:56.139Z,25.85
2023-05-01T09:38:25.615Z,26.60
2023-05-01T09:40:56.638Z,27.44
2023-05-01T09:43:28.926Z,28.14
2023-05-01T09:46:06.854Z,28.53
2023-05-01T09:48:36.040Z,28.63
2023-05-01T09:51:21.771Z,28.29
2023-05-01T09:53:50.087Z,28.32
2023-05-01T09:56:18.423Z,28.51
2023-05-01T09:58:46.710Z,28.92
2023-05-01T10:01:16.610Z,29.52
2023-05-01T10:03:46.000Z,30.04
2023-05-01T10:06:13.994Z,29.82
2023-05-01T10:08:49.929Z,29.88
2023-05-01T10:11:18.028Z,29.84
2023-05-01T10:13:45.939Z,29.88
2023-05-01T10:16:31.786Z,30.28
2023-05-01T10:19:02.364Z,30.95
2023-05-01T10:21:33.248Z,31.77
2023-05-01T10:24:02.897Z,31.79
2023-05-01T10:26:31.247Z,31.37
2023-05-01T10:29:01.495Z,31.60
2023-05-01T10:31:33.066Z,31.71
2023-05-01T10:34:02.038Z,31.89
2023-05-01T10:36:35.384Z,31.77
2023-05-01T10:39:04.002Z,31.84
2023-05-01T10:42:03.752Z,31.66
2023-05-01T10:44:32.353Z,31.59
2023-05-01T10:47:01.657Z,31.51
2023-05-01T10:50:04.531Z,31.74
2023-05-01T10:52:32.565Z,31.79
2023-05-01T10:55:33.974Z,31.81
2023-05-01T10:58:01.949Z,32.27
2023-05-01T11:00:29.847Z,32.28
2023-05-01T11:03:27.401Z,32.24
2023-05-01T11:06:17.520Z,31.84
2023-05-01T11:08:46.416Z,30.85
2023-05-01T11:11:51.327Z,30.07
2023-05-01T11:14:19.402Z,30.06
2023-05-01T11:16:49.118Z,30.03
2023-05-01T11:19:50.560Z,29.53
2023-05-01T11:22:20.149Z,29.13
2023-05-01T11:24:48.133Z,28.83
2023-05-01T11:27:16.718Z,28.39
2023-05-01T11:29:48.673Z,27.54
2023-05-01T11:32:28.167Z,26.65
2023-05-01T11:34:56.615Z,25.70
2023-05-01T11:37:42.089Z,24.90
2023-05-01T11:40:23.007Z,24.36
2023-05-01T11:42:51.755Z,23.70
2023-05-01T11:45:21.058Z,23.17
2023-05-01T11:47:49.349Z,22.94
2023-05-01T11:50:17.429Z,22.73
2023-05-01T11:52:53.724Z,22.26
2023-05-01T11:55:22.414Z,22.04
2023-05-01T11:57:51.908Z,21.81
2023-05-01T12:00:28.750Z,21.46
2023-05-01T12:02:58.659Z,21.19
2023-05-01T12:05:27.636Z,21.01
2023-05-01T12:08:11.286Z,20.75
2023-05-01T12:10:40.813Z,20.65
2023-05-01T12:13:10.318Z,20.40
2023-05-01T12:15:40.902Z,20.27
2023-05-01T12:18:09.654Z,20.20
2023-05-01T12:20:39.078Z,20.06
2023-05-01T12:23:09.767Z,19.98
2023-05-01T12:25:40.859Z,19.91
2023-05-01T12:28:15.579Z,19.87
2023-05-01T12:30:47.537Z,19.78
2023-05-01T12:33:17.521Z,19.67
2023-05-01T12:35:47.216Z,19.58
2023-05-01T12:38:17.385Z,19.48
2023-05-01T12:40:53.894Z,19.42
2023-05-01T12:43:22.789Z,19.34
2023-05-01T12:45:54.392Z,19.43
2023-05-01T12:48:22.599Z,19.55
2023-05-01T12:50:55.041Z,19.63
2023-05-01T12:53:25.866Z,19.68
2023-05-01T12:55:56.495Z,19.65
2023-05-01T12:58:25.217Z,19.65
2023-05-01T13:00:54.171Z,19.63
2023-05-01T13:03:25.844Z,19.66
2023-05-01T13:05:55.702Z,19.60
2023-05-01T13:08:30.158Z,19.50
2023-05-01T13:10:59.850Z,19.59
2023-05-01T13:13:36.051Z,19.66
2023-05-01T13:16:10.048Z,19.71
2023-05-01T13:18:45.431Z,19.75
2023-05-01T13:21:16.233Z,19.77
2023-05-01T13:23:54.205Z,19.84
2023-05-01T13:26:27.703Z,19.86
2023-05-01T13:28:57.243Z,19.88
2023-05-01T13:31:25.525Z,19.84
2023-05-01T13:33:55.016Z,19.88
2023-05-01T13:36:26.373Z,19.99
2023-05-01T13:38:57.920Z,20.13
2023-05-01T13:41:27.358Z,20.13
2023-05-01T13:43:56.764Z,20.07
2023-05-01T13:46:26.532Z,20.13
2023-05-01T13:48:54.720Z,20.16
2023-05-01T13:51:25.144Z,20.11
2023-05-01T13:53:54.619Z,19.98
2023-05-01T13:56:23.959Z,19.92
2023-05-01T13:58:51.914Z,19.92
2023-05-01T14:01:21.715Z,19.89
2023-05-01T14:03:50.716Z,19.90
2023-05-01T14:06:20.261Z,19.79
2023-05-01T14:08:49.983Z,19.77
2023-05-01T14:11:18.279Z,19.75
2023-05-01T14:13:49.661Z,19.78
2023-05-01T14:16:24.689Z,19.79
2023-05-01T14:18:54.659Z,19.64
2023-05-01T14:21:24.110Z,19.42
2023-05-01T14:23:53.726Z,19.34
2023-05-01T14:26:24.161Z,19.26
2023-05-01T14:28:53.606Z,19.21
2023-05-01T14:31:27.356Z,18.92
2023-05-01T14:33:57.571Z,18.90
2023-05-01T14:36:26.638Z,18.91
2023-05-01T14:38:57.522Z,18.75
2023-05-01T14:41:25.720Z,18.58
2023-05-01T14:43:55.115Z,18.48
2023-05-01T14:46:30.834Z,18.46
2023-05-01T14:49:00.045Z,18.46
2023-05-01T14:51:28.932Z,18.54
2023-05-01T14:53:56.744Z,18.53
2023-05-01T14:56:25.092Z,18.46
2023-05-01T14:58:54.246Z,18.49
2023-05-01T15:01:22.254Z,18.54
2023-05-01T15:03:50.268Z,18.57
2023-05-01T15:06:18.240Z,18.44
2023-05-01T15:08:46.859Z,18.28
2023-05-01T15:11:15.341Z,18.20
2023-05-01T15:13:44.324Z,18.17
2023-05-01T15:16:13.834Z,18.17
2023-05-01T15:18:41.876Z,18.15
2023-05-01T15:21:09.783Z,18.10
2023-05-01T15:23:38.122Z,18.08
2023-05-01T15:26:06.021Z,18.15
2023-05-01T15:28:33.967Z,18.18
2023-05-01T15:31:02.249Z,18.16
2023-05-01T15:33:31.635Z,18.12
2023-05-01T15:35:59.565Z,18.08
2023-05-01T15:38:28.318Z,18.06
2023-05-01T15:40:56.337Z,18.05
2023-05-01T15:43:24.237Z,18.01
2023-05-01T15:45:53.153Z,17.99
2023-05-01T15:48:21.040Z,17.97
2023-05-01T15:50:50.447Z,17.95
2023-05-01T15:53:18.955Z,17.87
2023-05-01T15:55:46.720Z,17.84
2023-05-01T15:58:17.078Z,17.89
2023-05-01T16:00:48.238Z,17.82
2023-05-01T16:03:17.578Z,17.73
2023-05-01T16:05:47.114Z,17.70
2023-05-01T16:08:18.318Z,17.66
2023-05-01T16:10:46.383Z,17.60
2023-05-01T16:13:14.573Z,17.62
2023-05-01T16:15:42.691Z,17.61
2023-05-01T16:18:19.141Z,17.58
2023-05-01T16:20:47.137Z,17.48
2023-05-01T16:23:16.858Z,17.44
2023-05-01T16:25:44.929Z,17.44
2023-05-01T16:28:13.230Z,17.50
2023-05-01T16:30:42.659Z,17.48
2023-05-01T16:33:17.625Z,17.45
2023-05-01T16:35:48.517Z,17.44
2023-05-01T16:38:17.991Z,17.43
2023-05-01T16:40:46.675Z,17.38
2023-05-01T16:43:14.683Z,17.35
2023-05-01T16:45:42.692Z,17.28
2023-05-01T16:48:10.719Z,17.18
2023-05-01T16:50:41.592Z,17.07
2023-05-01T16:53:09.481Z,17.00
2023-05-01T16:55:38.778Z,17.04
2023-05-01T16:58:06.928Z,17.04
2023-05-01T17:00:34.834Z,17.02
2023-05-01T17:03:02.852Z,16.98
2023-05-01T17:05:30.929Z,16.98
2023-05-01T17:07:58.933Z,16.96
2023-05-01T17:10:27.022Z,16.93
2023-05-01T17:12:56.537Z,16.94
2023-05-01T17:15:24.603Z,16.93
2023-05-01T17:17:52.523Z,16.92
2023-05-01T17:20:20.417Z,16.89
2023-05-01T17:22:48.357Z,16.87
2023-05-01T17:25:16.387Z,16.83
2023-05-01T17:27:44.304Z,16.79
2023-05-01T17:30:14.252Z,16.76
2023-05-01T17:32:43.222Z,16.73
2023-05-01T17:35:11.380Z,16.74
2023-05-01T17:37:40.033Z,16.72
2023-05-01T17:40:11.075Z,16.68
2023-05-01T17:42:39.088Z,16.66
2023-05-01T17:45:10.081Z,16.64
2023-05-01T17:47:41.783Z,16.61
2023-05-01T17:50:11.774Z,16.57
2023-05-01T17:52:39.904Z,16.53
2023-05-01T17:55:08.571Z,16.47
2023-05-01T17:57:37.077Z,16.47
2023-05-01T18:00:06.476Z,16.47
2023-05-01T18:02:35.187Z,16.43
2023-05-01T18:05:05.040Z,16.41
2023-05-01T18:07:33.070Z,16.33
2023-05-01T18:10:01.365Z,16.30
2023-05-01T18:12:29.567Z,16.32
2023-05-01T18:14:57.434Z,16.24
2023-05-01T18:17:25.972Z,16.23
2023-05-01T18:19:53.898Z,16.25
2023-05-01T18:22:23.089Z,16.21
2023-05-01T18:24:51.477Z,16.21
2023-05-01T18:27:19.350Z,16.16
2023-05-01T18:29:47.362Z,16.11
2023-05-01T18:32:15.327Z,16.04
2023-05-01T18:34:43.162Z,16.00
2023-05-01T18:37:10.958Z,15.97
2023-05-01T18:39:42.785Z,15.90
2023-05-01T18:42:10.640Z,15.85
2023-05-01T18:44:38.505Z,15.81
2023-05-01T18:47:06.389Z,15.76
2023-05-01T18:49:34.602Z,15.73
2023-05-01T18:52:03.457Z,15.73
2023-05-01T18:54:31.565Z,15.67
2023-05-01T18:57:00.800Z,15.63
2023-05-01T18:59:31.032Z,15.61
2023-05-01T19:01:59.000Z,15.56
2023-05-01T19:04:26.874Z,15.57
2023-05-01T19:06:54.828Z,15.54
2023-05-01T19:09:22.769Z,15.51
2023-05-01T19:11:50.753Z,15.47
2023-05-01T19:14:21.404Z,15.43
2023-05-01T19:16:49.477Z,15.39
2023-05-01T19:19:17.416Z,15.35
2023-05-01T19:21:45.385Z,15.35
2023-05-01T19:24:13.313Z,15.32
2023-05-01T19:26:44.378Z,15.29
2023-05-01T19:29:12.879Z,15.23
2023-05-01T19:31:42.206Z,15.12
2023-05-01T19:34:10.092Z,15.01
2023-05-01T19:36:38.007Z,15.00
2023-05-01T19:39:07.270Z,15.01
2023-05-01T19:41:35.698Z,14.97
2023-05-01T19:44:03.768Z,14.93
2023-05-01T19:46:31.979Z,14.93
2023-05-01T19:49:01.498Z,14.87
2023-05-01T19:51:29.315Z,14.80
2023-05-01T19:53:57.177Z,14.73
2023-05-01T19:56:25.420Z,14.65
2023-05-01T19:58:55.061Z,14.62
2023-05-01T20:01:23.070Z,14.57
2023-05-01T20:03:51.449Z,14.54
2023-05-01T20:06:21.411Z,14.52
2023-05-01T20:08:49.301Z,14.42
2023-05-01T20:11:17.448Z,14.38
2023-05-01T20:13:46.349Z,14.34
2023-05-01T20:16:14.322Z,14.31
2023-05-01T20:18:42.680Z,14.32
2023-05-01T20:21:10.729Z,14.27
2023-05-01T20:23:40.232Z,14.21
2023-05-01T20:26:08.122Z,14.16
2023-05-01T20:28:36.186Z,14.07
2023-05-01T20:31:04.108Z,14.00
2023-05-01T20:33:32.088Z,13.93
2023-05-01T20:36:00.556Z,13.86
2023-05-01T20:38:28.758Z,13.77
2023-05-01T20:40:57.956Z,13.74
2023-05-01T20:43:25.874Z,13.70
2023-05-01T20:45:54.102Z,13.65
2023-05-01T20:48:22.139Z,13.64
2023-05-01T20:50:50.030Z,13.60
2023-05-01T20:53:19.048Z,13.54
2023-05-01T20:55:46.888Z,13.49
2023-05-01T20:58:16.086Z,13.44
2023-05-01T21:00:43.948Z,13.41
2023-05-01T21:03:11.965Z,13.40
2023-05-01T21:05:39.950Z,13.38
2023-05-01T21:08:07.917Z,13.38
2023-05-01T21:10:36.763Z,13.35
2023-05-01T21:13:04.755Z,13.32
2023-05-01T21:15:34.223Z,13.25
2023-05-01T21:18:02.730Z,13.21
2023-05-01T21:20:33.282Z,13.18
2023-05-01T21:23:01.536Z,13.14
2023-05-01T21:25:31.935Z,13.12
2023-05-01T21:28:02.141Z,13.10
2023-05-01T21:30:33.641Z,13.10
2023-05-01T21:33:01.944Z,13.05
2023-05-01T21:35:30.676Z,13.06
2023-05-01T21:37:58.886Z,13.02
2023-05-01T21:40:27.963Z,13.00
2023-05-01T21:42:56.363Z,12.96
2023-05-01T21:45:25.663Z,12.90
2023-05-01T21:47:55.020Z,12.86
2023-05-01T21:50:22.927Z,12.80
2023-05-01T21:52:51.502Z,12.72
2023-05-01T21:55:22.341Z,12.66
2023-05-01T21:57:50.906Z,12.63
2023-05-01T22:00:19.439Z,12.57
2023-05-01T22:02:49.511Z,12.60
2023-05-01T22:05:22.562Z,12.59
2023-05-01T22:07:52.537Z,12.52
2023-05-01T22:10:21.585Z,12.49
2023-05-01T22:12:50.310Z,12.49
2023-05-01T22:15:18.410Z,12.50
2023-05-01T22:17:46.738Z,12.46
2023-05-01T22:20:14.681Z,12.45
2023-05-01T22:22:44.170Z,12.41
2023-05-01T22:25:13.283Z,12.38
2023-05-01T22:27:41.883Z,12.35
2023-05-01T22:30:11.271Z,12.30
2023-05-01T22:32:39.247Z,12.26
2023-05-01T22:35:08.479Z,12.24
2023-05-01T22:37:36.470Z,12.20
2023-05-01T22:40:07.083Z,12.17
2023-05-01T22:42:34.941Z,12.15
2023-05-01T22:45:02.791Z,12.11
2023-05-01T22:47:30.662Z,12.11
2023-05-01T22:49:58.894Z,12.07
2023-05-01T22:52:27.261Z,12.05
2023-05-01T22:54:56.111Z,12.02
2023-05-01T22:57:25.457Z,12.03
2023-05-01T22:59:53.324Z,12.04
2023-05-01T23:02:21.638Z,12.02
2023-05-01T23:04:49.813Z,12.06
2023-05-01T23:07:17.827Z,12.09
2023-05-01T23:09:46.716Z,12.07
2023-05-01T23:12:19.503Z,12.06
2023-05-01T23:14:48.602Z,12.06
2023-05-01T23:17:17.349Z,12.10
2023-05-01T23:19:47.276Z,12.08
2023-05-01T23:22:15.406Z,12.08
2023-05-01T23:24:47.659Z,12.08
2023-05-01T23:27:16.861Z,12.08
2023-05-01T23:29:53.969Z,12.08
2023-05-01T23:32:26.757Z,12.05
2023-05-01T23:34:55.481Z,12.04
2023-05-01T23:37:23.379Z,12.05
2023-05-01T23:39:53.597Z,12.04
2023-05-01T23:42:23.636Z,12.05
2023-05-01T23:44:52.895Z,12.04
2023-05-01T23:47:21.172Z,12.02
2023-05-01T23:49:49.282Z,11.98
2023-05-01T23:52:17.417Z,12.00
2023-05-01T23:54:45.238Z,11.99
2023-05-01T23:57:13.603Z,12.02
2023-05-01T23:59:41.602Z,12.03
